sensor_id;sensor_type;location;lat;lon;timestamp;temperature;humidity
24217;DHT22;12356;49.386;8.688;2023-01-19T00:00:53;2.40;27.40
24217;DHT22;12356;49.386;8.688;2023-01-19T00:03:24;2.40;27.50
24217;DHT22;12356;49.386;8.688;2023-01-19T00:05:55;2.30;27.50
24217;DHT22;12356;49.386;8.688;2023-01-19T00:08:25;2.30;27.50
24217;DHT22;12356;49.386;8.688;2023-01-19T00:10:56;2.40;27.50
24217;DHT22;12356;49.386;8.688;2023-01-19T00:13:27;2.50;27.90
24217;DHT22;12356;49.386;8.688;2023-01-19T00:15:57;2.60;27.80
24217;DHT22;12356;49.386;8.688;2023-01-19T00:18:28;2.50;27.60
24217;DHT22;12356;49.386;8.688;2023-01-19T00:20:59;2.60;27.80
24217;DHT22;12356;49.386;8.688;2023-01-19T00:23:29;2.60;27.90
24217;DHT22;12356;49.386;8.688;2023-01-19T00:26:00;2.50;27.80
24217;DHT22;12356;49.386;8.688;2023-01-19T00:28:30;2.50;28.00
24217;DHT22;12356;49.386;8.688;2023-01-19T00:31:01;2.50;27.90
24217;DHT22;12356;49.386;8.688;2023-01-19T00:33:32;2.50;28.30
24217;DHT22;12356;49.386;8.688;2023-01-19T00:36:03;2.40;28.40
24217;DHT22;12356;49.386;8.688;2023-01-19T00:38:34;2.50;28.80
24217;DHT22;12356;49.386;8.688;2023-01-19T00:41:05;2.50;29.20
24217;DHT22;12356;49.386;8.688;2023-01-19T00:43:35;2.40;29.00
24217;DHT22;12356;49.386;8.688;2023-01-19T00:46:06;2.40;29.30
24217;DHT22;12356;49.386;8.688;2023-01-19T00:48:37;2.40;29.20
24217;DHT22;12356;49.386;8.688;2023-01-19T00:51:08;2.50;29.90
24217;DHT22;12356;49.386;8.688;2023-01-19T00:53:39;2.50;30.00
24217;DHT22;12356;49.386;8.688;2023-01-19T00:56:10;2.40;30.10
24217;DHT22;12356;49.386;8.688;2023-01-19T00:58:41;2.40;30.10
24217;DHT22;12356;49.386;8.688;2023-01-19T01:01:12;2.50;30.60
24217;DHT22;12356;49.386;8.688;2023-01-19T01:03:43;2.50;31.00
24217;DHT22;12356;49.386;8.688;2023-01-19T01:06:14;2.50;30.80
24217;DHT22;12356;49.386;8.688;2023-01-19T01:08:44;2.60;30.60
24217;DHT22;12356;49.386;8.688;2023-01-19T01:11:15;2.60;30.50
24217;DHT22;12356;49.386;8.688;2023-01-19T01:13:46;2.60;30.30
24217;DHT22;12356;49.386;8.688;2023-01-19T01:16:16;2.60;31.50
24217;DHT22;12356;49.386;8.688;2023-01-19T01:18:47;2.60;31.70
24217;DHT22;12356;49.386;8.688;2023-01-19T01:21:18;2.70;31.80
24217;DHT22;12356;49.386;8.688;2023-01-19T01:23:48;2.70;31.40
24217;DHT22;12356;49.386;8.688;2023-01-19T01:26:20;2.70;30.80
24217;DHT22;12356;49.386;8.688;2023-01-19T01:28:50;2.70;31.00
24217;DHT22;12356;49.386;8.688;2023-01-19T01:31:21;2.80;30.80
24217;DHT22;12356;49.386;8.688;2023-01-19T01:33:52;2.80;30.70
24217;DHT22;12356;49.386;8.688;2023-01-19T01:36:22;2.70;30.50
24217;DHT22;12356;49.386;8.688;2023-01-19T01:38:53;2.70;30.40
24217;DHT22;12356;49.386;8.688;2023-01-19T01:41:24;2.80;30.30
24217;DHT22;12356;49.386;8.688;2023-01-19T01:43:57;2.80;30.90
24217;DHT22;12356;49.386;8.688;2023-01-19T01:46:29;2.80;30.40
24217;DHT22;12356;49.386;8.688;2023-01-19T01:49:09;2.80;30.90
24217;DHT22;12356;49.386;8.688;2023-01-19T01:51:44;2.70;30.40
24217;DHT22;12356;49.386;8.688;2023-01-19T01:54:20;2.80;30.70
24217;DHT22;12356;49.386;8.688;2023-01-19T01:56:54;2.70;30.60
24217;DHT22;12356;49.386;8.688;2023-01-19T01:59:31;2.80;30.90
24217;DHT22;12356;49.386;8.688;2023-01-19T02:02:22;2.80;30.10
24217;DHT22;12356;49.386;8.688;2023-01-19T02:05:31;2.80;30.50
24217;DHT22;12356;49.386;8.688;2023-01-19T02:11:07;2.80;30.70
24217;DHT22;12356;49.386;8.688;2023-01-19T02:13:57;2.80;30.30
24217;DHT22;12356;49.386;8.688;2023-01-19T02:16:28;2.70;30.50
24217;DHT22;12356;49.386;8.688;2023-01-19T02:18:59;2.70;30.10
24217;DHT22;12356;49.386;8.688;2023-01-19T02:21:38;2.70;30.20
24217;DHT22;12356;49.386;8.688;2023-01-19T02:24:09;2.70;30.40
24217;DHT22;12356;49.386;8.688;2023-01-19T02:26:43;2.70;30.60
24217;DHT22;12356;49.386;8.688;2023-01-19T02:29:20;2.70;30.50
24217;DHT22;12356;49.386;8.688;2023-01-19T02:31:51;2.70;30.30
24217;DHT22;12356;49.386;8.688;2023-01-19T02:34:23;2.70;30.60
24217;DHT22;12356;49.386;8.688;2023-01-19T02:36:56;2.60;30.40
24217;DHT22;12356;49.386;8.688;2023-01-19T02:39:51;2.70;30.60
24217;DHT22;12356;49.386;8.688;2023-01-19T02:42:28;2.60;30.30
24217;DHT22;12356;49.386;8.688;2023-01-19T02:45:00;2.60;30.00
24217;DHT22;12356;49.386;8.688;2023-01-19T02:47:43;2.70;30.10
24217;DHT22;12356;49.386;8.688;2023-01-19T02:50:48;2.70;30.20
24217;DHT22;12356;49.386;8.688;2023-01-19T02:53:32;2.70;30.30
24217;DHT22;12356;49.386;8.688;2023-01-19T02:59:28;2.70;30.00
24217;DHT22;12356;49.386;8.688;2023-01-19T03:10:39;2.70;30.00
24217;DHT22;12356;49.386;8.688;2023-01-19T03:16:29;2.60;30.00
24217;DHT22;12356;49.386;8.688;2023-01-19T03:21:43;2.60;30.60
24217;DHT22;12356;49.386;8.688;2023-01-19T03:24:16;2.60;30.90
24217;DHT22;12356;49.386;8.688;2023-01-19T03:26:52;2.60;30.00
24217;DHT22;12356;49.386;8.688;2023-01-19T03:29:28;2.50;30.70
24217;DHT22;12356;49.386;8.688;2023-01-19T03:32:04;2.60;30.80
24217;DHT22;12356;49.386;8.688;2023-01-19T03:34:36;2.50;30.90
24217;DHT22;12356;49.386;8.688;2023-01-19T03:37:09;2.60;31.30
24217;DHT22;12356;49.386;8.688;2023-01-19T03:39:40;2.60;31.20
24217;DHT22;12356;49.386;8.688;2023-01-19T03:42:13;2.70;31.20
24217;DHT22;12356;49.386;8.688;2023-01-19T03:44:45;2.60;30.50
24217;DHT22;12356;49.386;8.688;2023-01-19T03:47:20;2.70;30.80
24217;DHT22;12356;49.386;8.688;2023-01-19T03:49:52;2.70;30.90
24217;DHT22;12356;49.386;8.688;2023-01-19T03:52:28;2.70;31.10
24217;DHT22;12356;49.386;8.688;2023-01-19T03:55:00;2.70;32.40
24217;DHT22;12356;49.386;8.688;2023-01-19T03:57:31;2.70;31.00
24217;DHT22;12356;49.386;8.688;2023-01-19T04:00:03;2.70;30.60
24217;DHT22;12356;49.386;8.688;2023-01-19T04:02:33;2.70;30.90
24217;DHT22;12356;49.386;8.688;2023-01-19T04:05:04;2.70;30.90
24217;DHT22;12356;49.386;8.688;2023-01-19T04:07:35;2.80;31.20
24217;DHT22;12356;49.386;8.688;2023-01-19T04:10:06;2.80;31.10
24217;DHT22;12356;49.386;8.688;2023-01-19T04:12:41;2.80;31.40
24217;DHT22;12356;49.386;8.688;2023-01-19T04:15:13;2.80;31.30
24217;DHT22;12356;49.386;8.688;2023-01-19T04:17:44;2.80;31.20
24217;DHT22;12356;49.386;8.688;2023-01-19T04:20:14;2.80;31.50
24217;DHT22;12356;49.386;8.688;2023-01-19T04:22:45;2.80;31.50
24217;DHT22;12356;49.386;8.688;2023-01-19T04:25:16;2.80;31.00
24217;DHT22;12356;49.386;8.688;2023-01-19T04:27:51;2.80;30.90
24217;DHT22;12356;49.386;8.688;2023-01-19T04:30:21;2.80;31.40
24217;DHT22;12356;49.386;8.688;2023-01-19T04:32:52;2.90;31.10
24217;DHT22;12356;49.386;8.688;2023-01-19T04:35:24;2.90;30.80
24217;DHT22;12356;49.386;8.688;2023-01-19T04:37:55;2.80;31.30
24217;DHT22;12356;49.386;8.688;2023-01-19T04:40:26;2.90;31.60
24217;DHT22;12356;49.386;8.688;2023-01-19T04:42:56;2.90;31.70
24217;DHT22;12356;49.386;8.688;2023-01-19T04:45:27;2.80;31.70
24217;DHT22;12356;49.386;8.688;2023-01-19T04:47:58;2.80;32.00
24217;DHT22;12356;49.386;8.688;2023-01-19T04:50:29;2.80;31.90
24217;DHT22;12356;49.386;8.688;2023-01-19T04:52:59;2.80;31.90
24217;DHT22;12356;49.386;8.688;2023-01-19T04:55:31;2.80;31.90
24217;DHT22;12356;49.386;8.688;2023-01-19T04:58:01;2.70;31.80
24217;DHT22;12356;49.386;8.688;2023-01-19T05:00:33;2.80;32.30
24217;DHT22;12356;49.386;8.688;2023-01-19T05:03:04;2.70;32.00
24217;DHT22;12356;49.386;8.688;2023-01-19T05:05:34;2.80;32.00
24217;DHT22;12356;49.386;8.688;2023-01-19T05:08:05;2.90;32.10
24217;DHT22;12356;49.386;8.688;2023-01-19T05:10:35;2.90;32.00
24217;DHT22;12356;49.386;8.688;2023-01-19T05:13:06;2.90;32.30
24217;DHT22;12356;49.386;8.688;2023-01-19T05:15:37;2.80;32.00
24217;DHT22;12356;49.386;8.688;2023-01-19T05:18:07;2.90;32.20
24217;DHT22;12356;49.386;8.688;2023-01-19T05:20:38;2.80;32.20
24217;DHT22;12356;49.386;8.688;2023-01-19T05:23:09;2.80;33.00
24217;DHT22;12356;49.386;8.688;2023-01-19T05:25:41;2.80;32.90
24217;DHT22;12356;49.386;8.688;2023-01-19T05:28:12;2.80;33.10
24217;DHT22;12356;49.386;8.688;2023-01-19T05:30:44;2.80;33.10
24217;DHT22;12356;49.386;8.688;2023-01-19T05:33:15;2.80;33.80
24217;DHT22;12356;49.386;8.688;2023-01-19T05:35:46;2.70;33.90
24217;DHT22;12356;49.386;8.688;2023-01-19T05:38:17;2.80;33.20
24217;DHT22;12356;49.386;8.688;2023-01-19T05:40:48;2.70;32.80
24217;DHT22;12356;49.386;8.688;2023-01-19T05:43:18;2.80;32.70
24217;DHT22;12356;49.386;8.688;2023-01-19T05:45:49;2.70;32.90
24217;DHT22;12356;49.386;8.688;2023-01-19T05:48:20;2.70;33.10
24217;DHT22;12356;49.386;8.688;2023-01-19T05:50:55;2.70;33.30
24217;DHT22;12356;49.386;8.688;2023-01-19T05:53:26;2.60;33.30
24217;DHT22;12356;49.386;8.688;2023-01-19T05:56:01;2.60;34.00
24217;DHT22;12356;49.386;8.688;2023-01-19T05:58:33;2.70;33.60
24217;DHT22;12356;49.386;8.688;2023-01-19T06:01:06;2.70;33.60
24217;DHT22;12356;49.386;8.688;2023-01-19T06:03:37;2.60;33.60
24217;DHT22;12356;49.386;8.688;2023-01-19T06:06:08;2.60;33.70
24217;DHT22;12356;49.386;8.688;2023-01-19T06:08:39;2.60;34.80
24217;DHT22;12356;49.386;8.688;2023-01-19T06:11:10;2.60;34.10
24217;DHT22;12356;49.386;8.688;2023-01-19T06:13:41;2.60;34.20
24217;DHT22;12356;49.386;8.688;2023-01-19T06:16:12;2.60;34.50
24217;DHT22;12356;49.386;8.688;2023-01-19T06:18:43;2.60;34.50
24217;DHT22;12356;49.386;8.688;2023-01-19T06:21:14;2.60;34.40
24217;DHT22;12356;49.386;8.688;2023-01-19T06:23:45;2.60;34.20
24217;DHT22;12356;49.386;8.688;2023-01-19T06:26:15;2.60;34.20
24217;DHT22;12356;49.386;8.688;2023-01-19T06:28:46;2.60;34.50
24217;DHT22;12356;49.386;8.688;2023-01-19T06:31:17;2.70;34.60
24217;DHT22;12356;49.386;8.688;2023-01-19T06:33:48;2.80;34.20
24217;DHT22;12356;49.386;8.688;2023-01-19T06:36:19;2.80;34.30
24217;DHT22;12356;49.386;8.688;2023-01-19T06:38:50;2.80;34.40
24217;DHT22;12356;49.386;8.688;2023-01-19T06:41:20;2.80;33.80
24217;DHT22;12356;49.386;8.688;2023-01-19T06:43:51;2.90;33.60
24217;DHT22;12356;49.386;8.688;2023-01-19T06:46:21;2.90;33.70
24217;DHT22;12356;49.386;8.688;2023-01-19T06:48:53;2.90;33.90
24217;DHT22;12356;49.386;8.688;2023-01-19T06:51:24;2.90;33.30
24217;DHT22;12356;49.386;8.688;2023-01-19T06:53:54;2.90;33.40
24217;DHT22;12356;49.386;8.688;2023-01-19T06:56:25;3.00;33.00
24217;DHT22;12356;49.386;8.688;2023-01-19T06:58:56;3.00;32.90
24217;DHT22;12356;49.386;8.688;2023-01-19T07:01:26;3.00;33.20
24217;DHT22;12356;49.386;8.688;2023-01-19T07:03:57;3.00;32.70
24217;DHT22;12356;49.386;8.688;2023-01-19T07:06:28;3.00;32.80
24217;DHT22;12356;49.386;8.688;2023-01-19T07:08:58;3.00;32.20
24217;DHT22;12356;49.386;8.688;2023-01-19T07:11:30;3.00;32.20
24217;DHT22;12356;49.386;8.688;2023-01-19T07:14:00;3.00;32.50
24217;DHT22;12356;49.386;8.688;2023-01-19T07:16:31;3.00;32.40
24217;DHT22;12356;49.386;8.688;2023-01-19T07:19:03;3.00;32.10
24217;DHT22;12356;49.386;8.688;2023-01-19T07:21:33;3.10;31.80
24217;DHT22;12356;49.386;8.688;2023-01-19T07:24:04;3.10;32.10
24217;DHT22;12356;49.386;8.688;2023-01-19T07:26:35;3.10;31.70
24217;DHT22;12356;49.386;8.688;2023-01-19T07:29:05;3.10;31.30
24217;DHT22;12356;49.386;8.688;2023-01-19T07:31:36;3.10;31.10
24217;DHT22;12356;49.386;8.688;2023-01-19T07:34:07;3.10;30.70
24217;DHT22;12356;49.386;8.688;2023-01-19T07:36:37;3.10;30.90
24217;DHT22;12356;49.386;8.688;2023-01-19T07:39:08;3.10;30.60
24217;DHT22;12356;49.386;8.688;2023-01-19T07:41:40;3.00;31.70
24217;DHT22;12356;49.386;8.688;2023-01-19T07:44:10;3.00;32.00
24217;DHT22;12356;49.386;8.688;2023-01-19T07:46:41;3.10;32.20
24217;DHT22;12356;49.386;8.688;2023-01-19T07:49:12;3.10;32.10
24217;DHT22;12356;49.386;8.688;2023-01-19T07:51:43;3.10;31.40
24217;DHT22;12356;49.386;8.688;2023-01-19T07:54:13;3.20;31.30
24217;DHT22;12356;49.386;8.688;2023-01-19T07:56:44;3.10;31.20
24217;DHT22;12356;49.386;8.688;2023-01-19T07:59:15;3.20;32.20
24217;DHT22;12356;49.386;8.688;2023-01-19T08:01:46;3.20;31.50
24217;DHT22;12356;49.386;8.688;2023-01-19T08:04:16;3.20;31.20
24217;DHT22;12356;49.386;8.688;2023-01-19T08:06:48;3.20;31.60
24217;DHT22;12356;49.386;8.688;2023-01-19T08:09:19;3.20;30.90
24217;DHT22;12356;49.386;8.688;2023-01-19T08:11:49;3.20;31.50
24217;DHT22;12356;49.386;8.688;2023-01-19T08:14:20;3.10;32.20
24217;DHT22;12356;49.386;8.688;2023-01-19T08:16:51;3.10;32.10
24217;DHT22;12356;49.386;8.688;2023-01-19T08:19:21;3.20;31.40
24217;DHT22;12356;49.386;8.688;2023-01-19T08:21:52;3.20;31.60
24217;DHT22;12356;49.386;8.688;2023-01-19T08:24:22;3.20;31.80
24217;DHT22;12356;49.386;8.688;2023-01-19T08:26:59;3.20;31.70
24217;DHT22;12356;49.386;8.688;2023-01-19T08:29:30;3.20;31.40
24217;DHT22;12356;49.386;8.688;2023-01-19T08:32:01;3.30;31.10
24217;DHT22;12356;49.386;8.688;2023-01-19T08:34:32;3.30;31.40
24217;DHT22;12356;49.386;8.688;2023-01-19T08:37:02;3.30;31.30
24217;DHT22;12356;49.386;8.688;2023-01-19T08:39:33;3.30;31.10
24217;DHT22;12356;49.386;8.688;2023-01-19T08:42:04;3.40;31.50
24217;DHT22;12356;49.386;8.688;2023-01-19T08:44:34;3.30;31.50
24217;DHT22;12356;49.386;8.688;2023-01-19T08:47:05;3.30;32.20
24217;DHT22;12356;49.386;8.688;2023-01-19T08:49:37;3.30;31.70
24217;DHT22;12356;49.386;8.688;2023-01-19T08:52:10;3.30;31.90
24217;DHT22;12356;49.386;8.688;2023-01-19T08:54:40;3.20;32.20
24217;DHT22;12356;49.386;8.688;2023-01-19T08:57:11;3.30;32.50
24217;DHT22;12356;49.386;8.688;2023-01-19T08:59:42;3.30;32.30
24217;DHT22;12356;49.386;8.688;2023-01-19T09:02:12;3.40;32.50
24217;DHT22;12356;49.386;8.688;2023-01-19T09:04:43;3.40;32.40
24217;DHT22;12356;49.386;8.688;2023-01-19T09:07:14;3.30;32.10
24217;DHT22;12356;49.386;8.688;2023-01-19T09:09:44;3.40;32.60
24217;DHT22;12356;49.386;8.688;2023-01-19T09:12:15;3.40;32.70
24217;DHT22;12356;49.386;8.688;2023-01-19T09:14:46;3.40;33.30
24217;DHT22;12356;49.386;8.688;2023-01-19T09:17:16;3.40;33.20
24217;DHT22;12356;49.386;8.688;2023-01-19T09:19:47;3.40;33.00
24217;DHT22;12356;49.386;8.688;2023-01-19T09:22:18;3.50;32.60
24217;DHT22;12356;49.386;8.688;2023-01-19T09:24:48;3.50;32.50
24217;DHT22;12356;49.386;8.688;2023-01-19T09:27:19;3.50;32.20
24217;DHT22;12356;49.386;8.688;2023-01-19T09:29:50;3.60;31.80
24217;DHT22;12356;49.386;8.688;2023-01-19T09:32:23;3.60;31.60
24217;DHT22;12356;49.386;8.688;2023-01-19T09:34:54;3.70;32.10
24217;DHT22;12356;49.386;8.688;2023-01-19T09:37:25;3.60;31.80
24217;DHT22;12356;49.386;8.688;2023-01-19T09:39:56;3.60;32.30
24217;DHT22;12356;49.386;8.688;2023-01-19T09:42:52;3.70;32.10
24217;DHT22;12356;49.386;8.688;2023-01-19T09:45:33;3.60;31.70
24217;DHT22;12356;49.386;8.688;2023-01-19T09:50:48;3.60;31.80
24217;DHT22;12356;49.386;8.688;2023-01-19T09:53:35;3.70;31.00
24217;DHT22;12356;49.386;8.688;2023-01-19T09:56:12;3.60;31.00
24217;DHT22;12356;49.386;8.688;2023-01-19T09:58:45;3.70;31.00
24217;DHT22;12356;49.386;8.688;2023-01-19T10:04:31;3.70;31.70
24217;DHT22;12356;49.386;8.688;2023-01-19T10:10:19;3.80;30.40
24217;DHT22;12356;49.386;8.688;2023-01-19T10:15:47;3.80;30.80
24217;DHT22;12356;49.386;8.688;2023-01-19T10:18:26;3.80;31.00
24217;DHT22;12356;49.386;8.688;2023-01-19T10:23:52;3.80;30.40
24217;DHT22;12356;49.386;8.688;2023-01-19T10:26:37;3.80;30.80
24217;DHT22;12356;49.386;8.688;2023-01-19T10:29:27;3.80;30.10
24217;DHT22;12356;49.386;8.688;2023-01-19T10:32:21;3.80;30.30
24217;DHT22;12356;49.386;8.688;2023-01-19T10:34:53;3.80;30.40
24217;DHT22;12356;49.386;8.688;2023-01-19T10:37:31;3.80;31.00
24217;DHT22;12356;49.386;8.688;2023-01-19T10:40:17;3.90;30.20
24217;DHT22;12356;49.386;8.688;2023-01-19T10:42:49;3.90;29.60
24217;DHT22;12356;49.386;8.688;2023-01-19T10:45:25;3.90;30.00
24217;DHT22;12356;49.386;8.688;2023-01-19T10:48:03;4.00;30.10
24217;DHT22;12356;49.386;8.688;2023-01-19T10:50:37;4.00;29.80
24217;DHT22;12356;49.386;8.688;2023-01-19T10:53:20;3.90;30.00
24217;DHT22;12356;49.386;8.688;2023-01-19T10:56:15;4.00;30.30
24217;DHT22;12356;49.386;8.688;2023-01-19T10:58:46;4.00;30.00
24217;DHT22;12356;49.386;8.688;2023-01-19T11:01:26;4.10;29.90
24217;DHT22;12356;49.386;8.688;2023-01-19T11:03:57;4.10;29.90
24217;DHT22;12356;49.386;8.688;2023-01-19T11:06:34;4.20;29.70
24217;DHT22;12356;49.386;8.688;2023-01-19T11:09:17;4.10;30.00
24217;DHT22;12356;49.386;8.688;2023-01-19T11:11:49;4.20;30.30
24217;DHT22;12356;49.386;8.688;2023-01-19T11:14:22;4.20;30.30
24217;DHT22;12356;49.386;8.688;2023-01-19T11:16:55;4.30;29.90
24217;DHT22;12356;49.386;8.688;2023-01-19T11:19:29;4.30;30.00
24217;DHT22;12356;49.386;8.688;2023-01-19T11:22:19;4.30;29.80
24217;DHT22;12356;49.386;8.688;2023-01-19T11:25:01;4.40;29.40
24217;DHT22;12356;49.386;8.688;2023-01-19T11:27:35;4.40;29.40
24217;DHT22;12356;49.386;8.688;2023-01-19T11:30:14;4.30;28.80
24217;DHT22;12356;49.386;8.688;2023-01-19T11:32:46;4.30;29.60
24217;DHT22;12356;49.386;8.688;2023-01-19T11:35:32;4.30;29.50
24217;DHT22;12356;49.386;8.688;2023-01-19T11:40:54;4.30;29.20
24217;DHT22;12356;49.386;8.688;2023-01-19T11:43:29;4.40;29.20
24217;DHT22;12356;49.386;8.688;2023-01-19T11:46:00;4.30;29.20
24217;DHT22;12356;49.386;8.688;2023-01-19T11:48:36;4.30;28.60
24217;DHT22;12356;49.386;8.688;2023-01-19T11:51:13;4.40;29.10
24217;DHT22;12356;49.386;8.688;2023-01-19T11:53:48;4.30;30.00
24217;DHT22;12356;49.386;8.688;2023-01-19T11:56:25;4.40;29.90
24217;DHT22;12356;49.386;8.688;2023-01-19T11:58:58;4.40;29.80
24217;DHT22;12356;49.386;8.688;2023-01-19T12:01:33;4.50;29.50
24217;DHT22;12356;49.386;8.688;2023-01-19T12:06:47;4.50;29.00
24217;DHT22;12356;49.386;8.688;2023-01-19T12:09:29;4.50;29.10
24217;DHT22;12356;49.386;8.688;2023-01-19T12:12:01;4.50;29.30
24217;DHT22;12356;49.386;8.688;2023-01-19T12:17:33;4.40;28.30
24217;DHT22;12356;49.386;8.688;2023-01-19T12:20:26;4.50;28.30
24217;DHT22;12356;49.386;8.688;2023-01-19T12:28:17;4.50;28.70
24217;DHT22;12356;49.386;8.688;2023-01-19T12:30:51;4.50;28.40
24217;DHT22;12356;49.386;8.688;2023-01-19T12:33:35;4.50;28.00
24217;DHT22;12356;49.386;8.688;2023-01-19T12:38:53;4.60;28.50
24217;DHT22;12356;49.386;8.688;2023-01-19T12:41:30;4.60;28.00
24217;DHT22;12356;49.386;8.688;2023-01-19T12:46:59;4.60;28.00
24217;DHT22;12356;49.386;8.688;2023-01-19T12:49:41;4.60;27.70
24217;DHT22;12356;49.386;8.688;2023-01-19T12:52:35;4.70;27.90
24217;DHT22;12356;49.386;8.688;2023-01-19T12:58:06;4.70;27.20
24217;DHT22;12356;49.386;8.688;2023-01-19T13:00:42;4.60;27.20
24217;DHT22;12356;49.386;8.688;2023-01-19T13:05:54;4.70;27.20
24217;DHT22;12356;49.386;8.688;2023-01-19T13:08:55;4.70;27.60
24217;DHT22;12356;49.386;8.688;2023-01-19T13:11:19;4.70;27.30
24217;DHT22;12356;49.386;8.688;2023-01-19T13:21:43;4.80;25.80
24217;DHT22;12356;49.386;8.688;2023-01-19T13:24:16;4.80;25.80
24217;DHT22;12356;49.386;8.688;2023-01-19T13:29:30;4.80;25.20
24217;DHT22;12356;49.386;8.688;2023-01-19T13:32:12;4.70;25.80
24217;DHT22;12356;49.386;8.688;2023-01-19T13:34:53;4.70;26.00
24217;DHT22;12356;49.386;8.688;2023-01-19T13:37:34;4.70;26.50
24217;DHT22;12356;49.386;8.688;2023-01-19T13:40:06;4.70;26.20
24217;DHT22;12356;49.386;8.688;2023-01-19T13:42:45;4.70;26.10
24217;DHT22;12356;49.386;8.688;2023-01-19T13:47:56;4.70;24.80
24217;DHT22;12356;49.386;8.688;2023-01-19T13:50:30;4.70;25.30
24217;DHT22;12356;49.386;8.688;2023-01-19T13:53:01;4.80;24.40
24217;DHT22;12356;49.386;8.688;2023-01-19T13:55:33;4.90;24.40
24217;DHT22;12356;49.386;8.688;2023-01-19T13:58:19;4.80;23.90
24217;DHT22;12356;49.386;8.688;2023-01-19T14:00:50;4.80;23.90
24217;DHT22;12356;49.386;8.688;2023-01-19T14:03:23;4.80;24.00
24217;DHT22;12356;49.386;8.688;2023-01-19T14:05:53;4.80;23.80
24217;DHT22;12356;49.386;8.688;2023-01-19T14:08:24;4.70;23.60
24217;DHT22;12356;49.386;8.688;2023-01-19T14:13:33;4.80;24.50
24217;DHT22;12356;49.386;8.688;2023-01-19T14:16:06;4.80;24.30
24217;DHT22;12356;49.386;8.688;2023-01-19T14:18:37;4.80;24.30
24217;DHT22;12356;49.386;8.688;2023-01-19T14:21:12;4.80;24.40
24217;DHT22;12356;49.386;8.688;2023-01-19T14:23:52;4.80;24.50
24217;DHT22;12356;49.386;8.688;2023-01-19T14:34:52;4.80;24.20
24217;DHT22;12356;49.386;8.688;2023-01-19T14:37:46;4.80;23.90
24217;DHT22;12356;49.386;8.688;2023-01-19T14:40:21;4.80;23.90
24217;DHT22;12356;49.386;8.688;2023-01-19T14:42:57;4.80;24.00
24217;DHT22;12356;49.386;8.688;2023-01-19T14:45:37;4.70;24.40
24217;DHT22;12356;49.386;8.688;2023-01-19T14:48:18;4.60;24.80
24217;DHT22;12356;49.386;8.688;2023-01-19T14:50:49;4.70;24.70
24217;DHT22;12356;49.386;8.688;2023-01-19T14:53:37;4.70;24.50
24217;DHT22;12356;49.386;8.688;2023-01-19T14:56:08;4.70;24.50
24217;DHT22;12356;49.386;8.688;2023-01-19T14:58:38;4.80;24.60
24217;DHT22;12356;49.386;8.688;2023-01-19T15:01:09;4.70;24.20
24217;DHT22;12356;49.386;8.688;2023-01-19T15:03:40;4.70;24.80
24217;DHT22;12356;49.386;8.688;2023-01-19T15:06:13;4.70;24.80
24217;DHT22;12356;49.386;8.688;2023-01-19T15:08:45;4.70;24.80
24217;DHT22;12356;49.386;8.688;2023-01-19T15:11:18;4.70;25.20
24217;DHT22;12356;49.386;8.688;2023-01-19T15:13:51;4.70;25.60
24217;DHT22;12356;49.386;8.688;2023-01-19T15:16:22;4.70;25.10
24217;DHT22;12356;49.386;8.688;2023-01-19T15:18:53;4.70;25.10
24217;DHT22;12356;49.386;8.688;2023-01-19T15:21:23;4.70;25.00
24217;DHT22;12356;49.386;8.688;2023-01-19T15:23:55;4.70;25.30
24217;DHT22;12356;49.386;8.688;2023-01-19T15:26:27;4.70;24.90
24217;DHT22;12356;49.386;8.688;2023-01-19T15:28:58;4.70;25.80
24217;DHT22;12356;49.386;8.688;2023-01-19T15:31:29;4.60;25.40
24217;DHT22;12356;49.386;8.688;2023-01-19T15:33:59;4.60;25.80
24217;DHT22;12356;49.386;8.688;2023-01-19T15:36:30;4.60;26.30
24217;DHT22;12356;49.386;8.688;2023-01-19T15:39:01;4.60;26.40
24217;DHT22;12356;49.386;8.688;2023-01-19T15:41:31;4.70;26.20
24217;DHT22;12356;49.386;8.688;2023-01-19T15:44:02;4.70;26.40
24217;DHT22;12356;49.386;8.688;2023-01-19T15:46:35;4.60;26.80
24217;DHT22;12356;49.386;8.688;2023-01-19T15:49:06;4.70;26.60
24217;DHT22;12356;49.386;8.688;2023-01-19T15:51:36;4.70;26.70
24217;DHT22;12356;49.386;8.688;2023-01-19T15:54:11;4.60;27.40
24217;DHT22;12356;49.386;8.688;2023-01-19T15:56:43;4.50;27.90
24217;DHT22;12356;49.386;8.688;2023-01-19T15:59:13;4.60;27.90
24217;DHT22;12356;49.386;8.688;2023-01-19T16:01:44;4.50;27.80
24217;DHT22;12356;49.386;8.688;2023-01-19T16:04:15;4.50;28.20
24217;DHT22;12356;49.386;8.688;2023-01-19T16:06:45;4.40;28.50
24217;DHT22;12356;49.386;8.688;2023-01-19T16:09:16;4.40;28.60
24217;DHT22;12356;49.386;8.688;2023-01-19T16:11:49;4.40;28.40
24217;DHT22;12356;49.386;8.688;2023-01-19T16:14:19;4.40;28.80
24217;DHT22;12356;49.386;8.688;2023-01-19T16:16:50;4.40;29.60
24217;DHT22;12356;49.386;8.688;2023-01-19T16:19:21;4.40;29.20
24217;DHT22;12356;49.386;8.688;2023-01-19T16:21:51;4.40;29.50
24217;DHT22;12356;49.386;8.688;2023-01-19T16:24:22;4.40;29.50
24217;DHT22;12356;49.386;8.688;2023-01-19T16:26:52;4.40;30.00
24217;DHT22;12356;49.386;8.688;2023-01-19T16:29:23;4.40;30.50
24217;DHT22;12356;49.386;8.688;2023-01-19T16:31:54;4.30;31.50
24217;DHT22;12356;49.386;8.688;2023-01-19T16:34:25;4.30;32.00
24217;DHT22;12356;49.386;8.688;2023-01-19T16:36:55;4.30;32.50
24217;DHT22;12356;49.386;8.688;2023-01-19T16:39:26;4.30;32.50
24217;DHT22;12356;49.386;8.688;2023-01-19T16:41:57;4.30;33.00
24217;DHT22;12356;49.386;8.688;2023-01-19T16:44:27;4.20;33.30
24217;DHT22;12356;49.386;8.688;2023-01-19T16:46:58;4.20;34.50
24217;DHT22;12356;49.386;8.688;2023-01-19T16:49:29;4.10;35.20
24217;DHT22;12356;49.386;8.688;2023-01-19T16:52:00;4.10;35.60
24217;DHT22;12356;49.386;8.688;2023-01-19T16:54:30;4.10;36.20
24217;DHT22;12356;49.386;8.688;2023-01-19T16:57:01;4.10;36.20
24217;DHT22;12356;49.386;8.688;2023-01-19T16:59:32;4.10;36.80
24217;DHT22;12356;49.386;8.688;2023-01-19T17:02:02;4.10;36.30
24217;DHT22;12356;49.386;8.688;2023-01-19T17:04:33;4.10;36.30
24217;DHT22;12356;49.386;8.688;2023-01-19T17:07:04;4.00;36.80
24217;DHT22;12356;49.386;8.688;2023-01-19T17:09:34;4.00;36.90
24217;DHT22;12356;49.386;8.688;2023-01-19T17:12:05;4.00;37.70
24217;DHT22;12356;49.386;8.688;2023-01-19T17:14:38;3.90;38.70
24217;DHT22;12356;49.386;8.688;2023-01-19T17:17:09;3.90;39.00
24217;DHT22;12356;49.386;8.688;2023-01-19T17:19:39;3.80;40.10
24217;DHT22;12356;49.386;8.688;2023-01-19T17:22:10;3.80;40.40
24217;DHT22;12356;49.386;8.688;2023-01-19T17:24:42;3.80;40.70
24217;DHT22;12356;49.386;8.688;2023-01-19T17:27:13;3.80;41.10
24217;DHT22;12356;49.386;8.688;2023-01-19T17:29:44;3.70;41.30
24217;DHT22;12356;49.386;8.688;2023-01-19T17:32:15;3.70;42.00
24217;DHT22;12356;49.386;8.688;2023-01-19T17:34:48;3.70;42.60
24217;DHT22;12356;49.386;8.688;2023-01-19T17:37:18;3.70;43.10
24217;DHT22;12356;49.386;8.688;2023-01-19T17:39:49;3.70;42.80
24217;DHT22;12356;49.386;8.688;2023-01-19T17:42:20;3.70;42.90
24217;DHT22;12356;49.386;8.688;2023-01-19T17:44:50;3.80;43.10
24217;DHT22;12356;49.386;8.688;2023-01-19T17:47:21;3.80;43.30